sensor_id;sensor_type;location;lat;lon;timestamp;P1;durP1;ratioP1;P2;durP2;ratioP2
19782;SDS011;10051;40.294;-3.754;2022-09-16T00:00:44;3.88;;;2.17;;
19782;SDS011;10051;40.294;-3.754;2022-09-16T00:03:10;7.03;;;2.10;;
19782;SDS011;10051;40.294;-3.754;2022-09-16T00:05:40;4.78;;;2.00;;
19782;SDS011;10051;40.294;-3.754;2022-09-16T00:08:07;4.43;;;2.33;;
19782;SDS011;10051;40.294;-3.754;2022-09-16T00:10:33;3.55;;;2.28;;
19782;SDS011;10051;40.294;-3.754;2022-09-16T00:12:59;7.05;;;2.40;;
19782;SDS011;10051;40.294;-3.754;2022-09-16T00:15:25;3.67;;;1.90;;
19782;SDS011;10051;40.294;-3.754;2022-09-16T00:17:50;6.15;;;2.60;;
19782;SDS011;10051;40.294;-3.754;2022-09-16T00:20:16;4.38;;;2.40;;
19782;SDS011;10051;40.294;-3.754;2022-09-16T00:22:41;6.93;;;2.40;;
19782;SDS011;10051;40.294;-3.754;2022-09-16T00:25:07;7.65;;;2.10;;
19782;SDS011;10051;40.294;-3.754;2022-09-16T00:27:33;5.03;;;2.00;;
19782;SDS011;10051;40.294;-3.754;2022-09-16T00:29:58;7.10;;;2.55;;
19782;SDS011;10051;40.294;-3.754;2022-09-16T00:32:24;6.55;;;2.10;;
19782;SDS011;10051;40.294;-3.754;2022-09-16T00:34:49;3.72;;;2.25;;
19782;SDS011;10051;40.294;-3.754;2022-09-16T00:37:15;6.07;;;2.20;;
19782;SDS011;10051;40.294;-3.754;2022-09-16T00:39:41;6.03;;;2.22;;
19782;SDS011;10051;40.294;-3.754;2022-09-16T00:42:08;2.47;;;1.67;;
19782;SDS011;10051;40.294;-3.754;2022-09-16T00:50:06;4.05;;;1.90;;
19782;SDS011;10051;40.294;-3.754;2022-09-16T00:52:34;4.32;;;1.90;;
19782;SDS011;10051;40.294;-3.754;2022-09-16T00:55:04;3.90;;;2.10;;
19782;SDS011;10051;40.294;-3.754;2022-09-16T00:57:32;5.45;;;2.20;;
19782;SDS011;10051;40.294;-3.754;2022-09-16T00:59:59;4.00;;;1.90;;
19782;SDS011;10051;40.294;-3.754;2022-09-16T01:02:25;3.60;;;1.90;;
19782;SDS011;10051;40.294;-3.754;2022-09-16T01:07:41;5.07;;;2.10;;
19782;SDS011;10051;40.294;-3.754;2022-09-16T01:10:10;5.55;;;2.50;;
19782;SDS011;10051;40.294;-3.754;2022-09-16T01:12:41;4.25;;;2.00;;
19782;SDS011;10051;40.294;-3.754;2022-09-16T01:15:09;4.00;;;2.28;;
19782;SDS011;10051;40.294;-3.754;2022-09-16T01:33:39;6.20;;;2.25;;
19782;SDS011;10051;40.294;-3.754;2022-09-16T01:42:13;6.32;;;2.22;;
19782;SDS011;10051;40.294;-3.754;2022-09-16T01:45:47;5.25;;;2.30;;
19782;SDS011;10051;40.294;-3.754;2022-09-16T01:50:58;8.30;;;2.50;;
19782;SDS011;10051;40.294;-3.754;2022-09-16T01:53:36;6.28;;;2.13;;
19782;SDS011;10051;40.294;-3.754;2022-09-16T01:58:39;2.95;;;2.13;;
19782;SDS011;10051;40.294;-3.754;2022-09-16T02:01:28;7.10;;;2.30;;
19782;SDS011;10051;40.294;-3.754;2022-09-16T02:03:59;5.80;;;2.30;;
19782;SDS011;10051;40.294;-3.754;2022-09-16T02:06:31;6.00;;;2.40;;
19782;SDS011;10051;40.294;-3.754;2022-09-16T02:09:04;4.93;;;2.30;;
19782;SDS011;10051;40.294;-3.754;2022-09-16T02:11:35;3.92;;;2.10;;
19782;SDS011;10051;40.294;-3.754;2022-09-16T02:14:04;5.75;;;2.55;;
19782;SDS011;10051;40.294;-3.754;2022-09-16T02:16:38;6.72;;;2.40;;
19782;SDS011;10051;40.294;-3.754;2022-09-16T02:19:14;5.63;;;2.50;;
19782;SDS011;10051;40.294;-3.754;2022-09-16T02:21:44;4.45;;;2.50;;
19782;SDS011;10051;40.294;-3.754;2022-09-16T02:24:12;6.63;;;2.40;;
19782;SDS011;10051;40.294;-3.754;2022-09-16T02:26:46;7.18;;;2.58;;
19782;SDS011;10051;40.294;-3.754;2022-09-16T02:29:17;4.95;;;2.45;;
19782;SDS011;10051;40.294;-3.754;2022-09-16T02:31:45;6.53;;;2.40;;
19782;SDS011;10051;40.294;-3.754;2022-09-16T02:34:16;6.05;;;2.45;;
19782;SDS011;10051;40.294;-3.754;2022-09-16T02:36:46;7.22;;;2.40;;
19782;SDS011;10051;40.294;-3.754;2022-09-16T02:39:17;6.15;;;2.60;;
19782;SDS011;10051;40.294;-3.754;2022-09-16T02:41:48;7.20;;;2.50;;
19782;SDS011;10051;40.294;-3.754;2022-09-16T02:44:15;8.27;;;2.83;;
19782;SDS011;10051;40.294;-3.754;2022-09-16T02:46:56;6.75;;;2.63;;
19782;SDS011;10051;40.294;-3.754;2022-09-16T02:57:00;7.97;;;2.63;;
19782;SDS011;10051;40.294;-3.754;2022-09-16T02:59:26;8.52;;;2.40;;
19782;SDS011;10051;40.294;-3.754;2022-09-16T03:01:52;6.40;;;2.40;;
19782;SDS011;10051;40.294;-3.754;2022-09-16T03:04:18;8.55;;;2.60;;
19782;SDS011;10051;40.294;-3.754;2022-09-16T03:06:45;5.20;;;2.60;;
19782;SDS011;10051;40.294;-3.754;2022-09-16T03:09:11;8.82;;;2.60;;
19782;SDS011;10051;40.294;-3.754;2022-09-16T03:17:27;5.53;;;2.70;;
19782;SDS011;10051;40.294;-3.754;2022-09-16T03:25:09;7.38;;;2.75;;
19782;SDS011;10051;40.294;-3.754;2022-09-16T03:28:12;8.48;;;2.92;;
19782;SDS011;10051;40.294;-3.754;2022-09-16T03:30:47;7.47;;;2.88;;
19782;SDS011;10051;40.294;-3.754;2022-09-16T03:33:24;5.80;;;2.80;;
19782;SDS011;10051;40.294;-3.754;2022-09-16T03:36:01;9.90;;;2.90;;
19782;SDS011;10051;40.294;-3.754;2022-09-16T03:38:30;5.53;;;2.70;;
19782;SDS011;10051;40.294;-3.754;2022-09-16T03:41:00;6.72;;;2.65;;
19782;SDS011;10051;40.294;-3.754;2022-09-16T03:43:27;5.20;;;2.90;;
19782;SDS011;10051;40.294;-3.754;2022-09-16T03:45:53;8.23;;;2.80;;
19782;SDS011;10051;40.294;-3.754;2022-09-16T03:48:18;5.28;;;2.60;;
19782;SDS011;10051;40.294;-3.754;2022-09-16T03:50:44;5.78;;;2.33;;
19782;SDS011;10051;40.294;-3.754;2022-09-16T03:53:10;7.95;;;2.50;;
19782;SDS011;10051;40.294;-3.754;2022-09-16T03:55:35;8.13;;;2.60;;
19782;SDS011;10051;40.294;-3.754;2022-09-16T03:58:00;6.63;;;2.33;;
19782;SDS011;10051;40.294;-3.754;2022-09-16T04:00:26;10.27;;;2.38;;
19782;SDS011;10051;40.294;-3.754;2022-09-16T04:02:53;6.22;;;2.60;;
19782;SDS011;10051;40.294;-3.754;2022-09-16T04:05:18;7.13;;;2.40;;
19782;SDS011;10051;40.294;-3.754;2022-09-16T04:07:44;4.45;;;2.42;;
19782;SDS011;10051;40.294;-3.754;2022-09-16T04:10:10;6.53;;;2.35;;
19782;SDS011;10051;40.294;-3.754;2022-09-16T04:12:36;4.55;;;2.20;;
19782;SDS011;10051;40.294;-3.754;2022-09-16T04:15:02;7.82;;;2.50;;
19782;SDS011;10051;40.294;-3.754;2022-09-16T04:17:30;6.82;;;2.25;;
19782;SDS011;10051;40.294;-3.754;2022-09-16T04:19:56;6.18;;;2.30;;
19782;SDS011;10051;40.294;-3.754;2022-09-16T04:22:21;5.38;;;2.20;;
19782;SDS011;10051;40.294;-3.754;2022-09-16T04:24:47;9.73;;;2.40;;
19782;SDS011;10051;40.294;-3.754;2022-09-16T04:27:12;8.75;;;2.13;;
19782;SDS011;10051;40.294;-3.754;2022-09-16T04:29:38;7.10;;;2.30;;
19782;SDS011;10051;40.294;-3.754;2022-09-16T04:32:03;5.07;;;2.30;;
19782;SDS011;10051;40.294;-3.754;2022-09-16T04:34:29;13.60;;;2.58;;
19782;SDS011;10051;40.294;-3.754;2022-09-16T04:36:56;3.92;;;2.20;;
19782;SDS011;10051;40.294;-3.754;2022-09-16T04:39:22;4.22;;;2.15;;
19782;SDS011;10051;40.294;-3.754;2022-09-16T04:41:47;10.05;;;2.50;;
19782;SDS011;10051;40.294;-3.754;2022-09-16T04:44:13;7.93;;;2.90;;
19782;SDS011;10051;40.294;-3.754;2022-09-16T04:46:39;7.25;;;2.30;;
19782;SDS011;10051;40.294;-3.754;2022-09-16T04:49:04;6.55;;;2.30;;
19782;SDS011;10051;40.294;-3.754;2022-09-16T04:51:30;5.78;;;2.40;;
19782;SDS011;10051;40.294;-3.754;2022-09-16T04:53:57;7.07;;;2.28;;
19782;SDS011;10051;40.294;-3.754;2022-09-16T04:56:27;6.60;;;2.13;;
19782;SDS011;10051;40.294;-3.754;2022-09-16T04:58:57;5.18;;;2.10;;
19782;SDS011;10051;40.294;-3.754;2022-09-16T05:01:25;5.05;;;2.20;;
19782;SDS011;10051;40.294;-3.754;2022-09-16T05:03:53;6.30;;;2.33;;
19782;SDS011;10051;40.294;-3.754;2022-09-16T05:06:25;4.10;;;2.38;;
19782;SDS011;10051;40.294;-3.754;2022-09-16T05:08:53;10.20;;;2.17;;
19782;SDS011;10051;40.294;-3.754;2022-09-16T05:11:24;8.27;;;2.40;;
19782;SDS011;10051;40.294;-3.754;2022-09-16T05:13:51;5.78;;;2.35;;
19782;SDS011;10051;40.294;-3.754;2022-09-16T05:16:18;9.10;;;2.50;;
19782;SDS011;10051;40.294;-3.754;2022-09-16T05:18:46;10.27;;;2.67;;
19782;SDS011;10051;40.294;-3.754;2022-09-16T05:21:14;6.32;;;2.50;;
19782;SDS011;10051;40.294;-3.754;2022-09-16T05:23:42;7.28;;;2.25;;
19782;SDS011;10051;40.294;-3.754;2022-09-16T05:26:10;9.68;;;2.33;;
19782;SDS011;10051;40.294;-3.754;2022-09-16T05:28:38;8.85;;;2.60;;
19782;SDS011;10051;40.294;-3.754;2022-09-16T05:33:34;8.90;;;2.97;;
19782;SDS011;10051;40.294;-3.754;2022-09-16T05:36:07;5.95;;;2.55;;
19782;SDS011;10051;40.294;-3.754;2022-09-16T05:38:34;7.90;;;2.90;;
19782;SDS011;10051;40.294;-3.754;2022-09-16T05:41:00;8.45;;;3.05;;
19782;SDS011;10051;40.294;-3.754;2022-09-16T05:43:26;8.90;;;3.00;;
19782;SDS011;10051;40.294;-3.754;2022-09-16T05:45:53;8.07;;;2.78;;
19782;SDS011;10051;40.294;-3.754;2022-09-16T05:48:19;7.53;;;2.70;;
19782;SDS011;10051;40.294;-3.754;2022-09-16T05:50:54;8.50;;;2.90;;
19782;SDS011;10051;40.294;-3.754;2022-09-16T05:53:22;8.10;;;2.70;;
19782;SDS011;10051;40.294;-3.754;2022-09-16T05:55:59;4.47;;;2.28;;
19782;SDS011;10051;40.294;-3.754;2022-09-16T05:58:30;6.72;;;2.25;;
19782;SDS011;10051;40.294;-3.754;2022-09-16T06:01:07;4.82;;;2.30;;
19782;SDS011;10051;40.294;-3.754;2022-09-16T06:03:35;4.43;;;2.35;;
19782;SDS011;10051;40.294;-3.754;2022-09-16T06:06:03;7.80;;;2.38;;
19782;SDS011;10051;40.294;-3.754;2022-09-16T06:08:48;6.30;;;2.17;;
19782;SDS011;10051;40.294;-3.754;2022-09-16T06:11:14;13.88;;;2.13;;
19782;SDS011;10051;40.294;-3.754;2022-09-16T06:13:40;3.03;;;1.92;;
19782;SDS011;10051;40.294;-3.754;2022-09-16T06:16:07;7.20;;;2.30;;
19782;SDS011;10051;40.294;-3.754;2022-09-16T06:18:34;6.32;;;2.20;;
19782;SDS011;10051;40.294;-3.754;2022-09-16T06:21:07;11.85;;;2.45;;
19782;SDS011;10051;40.294;-3.754;2022-09-16T06:23:35;13.27;;;2.90;;
19782;SDS011;10051;40.294;-3.754;2022-09-16T06:26:02;6.65;;;2.50;;
19782;SDS011;10051;40.294;-3.754;2022-09-16T06:28:30;8.90;;;2.60;;
19782;SDS011;10051;40.294;-3.754;2022-09-16T06:31:00;10.00;;;2.60;;
19782;SDS011;10051;40.294;-3.754;2022-09-16T06:33:30;6.53;;;2.67;;
19782;SDS011;10051;40.294;-3.754;2022-09-16T06:35:55;5.55;;;2.40;;
19782;SDS011;10051;40.294;-3.754;2022-09-16T06:38:22;11.57;;;2.60;;
19782;SDS011;10051;40.294;-3.754;2022-09-16T06:40:48;4.55;;;2.60;;
19782;SDS011;10051;40.294;-3.754;2022-09-16T06:43:14;6.50;;;2.33;;
19782;SDS011;10051;40.294;-3.754;2022-09-16T06:45:40;8.57;;;2.60;;
19782;SDS011;10051;40.294;-3.754;2022-09-16T06:48:06;6.88;;;3.42;;
19782;SDS011;10051;40.294;-3.754;2022-09-16T06:50:31;8.15;;;3.25;;
19782;SDS011;10051;40.294;-3.754;2022-09-16T06:52:57;9.48;;;3.17;;
19782;SDS011;10051;40.294;-3.754;2022-09-16T06:55:22;6.60;;;2.92;;
19782;SDS011;10051;40.294;-3.754;2022-09-16T06:57:48;7.53;;;2.67;;
19782;SDS011;10051;40.294;-3.754;2022-09-16T07:00:13;5.10;;;2.20;;
19782;SDS011;10051;40.294;-3.754;2022-09-16T07:02:39;7.28;;;2.35;;
19782;SDS011;10051;40.294;-3.754;2022-09-16T07:05:04;7.70;;;2.35;;
19782;SDS011;10051;40.294;-3.754;2022-09-16T07:07:30;6.82;;;2.25;;
19782;SDS011;10051;40.294;-3.754;2022-09-16T07:09:56;10.02;;;2.50;;
19782;SDS011;10051;40.294;-3.754;2022-09-16T07:12:22;6.35;;;2.20;;
19782;SDS011;10051;40.294;-3.754;2022-09-16T07:14:48;6.25;;;2.35;;
19782;SDS011;10051;40.294;-3.754;2022-09-16T07:17:13;9.15;;;1.98;;
19782;SDS011;10051;40.294;-3.754;2022-09-16T07:19:39;8.98;;;2.45;;
19782;SDS011;10051;40.294;-3.754;2022-09-16T07:22:06;9.05;;;2.50;;
19782;SDS011;10051;40.294;-3.754;2022-09-16T07:24:32;4.72;;;2.50;;
19782;SDS011;10051;40.294;-3.754;2022-09-16T07:26:57;6.88;;;2.65;;
19782;SDS011;10051;40.294;-3.754;2022-09-16T07:29:23;9.40;;;2.47;;
19782;SDS011;10051;40.294;-3.754;2022-09-16T07:31:48;11.55;;;2.63;;
19782;SDS011;10051;40.294;-3.754;2022-09-16T07:34:14;9.82;;;2.67;;
19782;SDS011;10051;40.294;-3.754;2022-09-16T07:36:40;6.90;;;2.40;;
19782;SDS011;10051;40.294;-3.754;2022-09-16T07:39:08;13.45;;;2.70;;
19782;SDS011;10051;40.294;-3.754;2022-09-16T07:41:36;10.40;;;3.13;;
19782;SDS011;10051;40.294;-3.754;2022-09-16T07:44:03;6.40;;;2.95;;
19782;SDS011;10051;40.294;-3.754;2022-09-16T07:46:30;6.00;;;2.47;;
19782;SDS011;10051;40.294;-3.754;2022-09-16T07:48:58;10.70;;;2.60;;
19782;SDS011;10051;40.294;-3.754;2022-09-16T07:51:25;4.82;;;2.55;;
19782;SDS011;10051;40.294;-3.754;2022-09-16T07:53:56;13.23;;;3.28;;
19782;SDS011;10051;40.294;-3.754;2022-09-16T07:56:27;5.80;;;2.88;;
19782;SDS011;10051;40.294;-3.754;2022-09-16T07:58:55;5.70;;;2.90;;
19782;SDS011;10051;40.294;-3.754;2022-09-16T08:01:21;6.35;;;2.88;;
19782;SDS011;10051;40.294;-3.754;2022-09-16T08:03:48;8.68;;;2.78;;
19782;SDS011;10051;40.294;-3.754;2022-09-16T08:08:41;8.23;;;2.80;;
19782;SDS011;10051;40.294;-3.754;2022-09-16T08:11:08;9.32;;;3.33;;
19782;SDS011;10051;40.294;-3.754;2022-09-16T08:13:35;9.27;;;2.90;;
19782;SDS011;10051;40.294;-3.754;2022-09-16T08:16:05;7.35;;;2.50;;
19782;SDS011;10051;40.294;-3.754;2022-09-16T08:18:34;10.25;;;2.45;;
19782;SDS011;10051;40.294;-3.754;2022-09-16T08:21:06;8.55;;;3.05;;
19782;SDS011;10051;40.294;-3.754;2022-09-16T08:23:33;10.15;;;3.17;;
19782;SDS011;10051;40.294;-3.754;2022-09-16T08:26:00;62.08;;;8.45;;
19782;SDS011;10051;40.294;-3.754;2022-09-16T10:38:52;4.80;;;1.30;;
19782;SDS011;10051;40.294;-3.754;2022-09-16T10:41:22;3.25;;;1.08;;
19782;SDS011;10051;40.294;-3.754;2022-09-16T10:43:50;3.13;;;1.20;;
19782;SDS011;10051;40.294;-3.754;2022-09-16T10:46:28;3.58;;;1.20;;
19782;SDS011;10051;40.294;-3.754;2022-09-16T10:49:08;3.35;;;1.30;;
19782;SDS011;10051;40.294;-3.754;2022-09-16T10:51:35;3.47;;;1.30;;
19782;SDS011;10051;40.294;-3.754;2022-09-16T10:54:02;5.45;;;1.13;;
19782;SDS011;10051;40.294;-3.754;2022-09-16T10:56:46;2.85;;;1.10;;
19782;SDS011;10051;40.294;-3.754;2022-09-16T10:59:13;3.97;;;1.20;;
19782;SDS011;10051;40.294;-3.754;2022-09-16T11:04:25;4.32;;;1.35;;
19782;SDS011;10051;40.294;-3.754;2022-09-16T11:18:10;3.33;;;1.30;;
19782;SDS011;10051;40.294;-3.754;2022-09-16T11:26:28;3.10;;;1.15;;
19782;SDS011;10051;40.294;-3.754;2022-09-16T11:42:29;8.07;;;1.60;;
19782;SDS011;10051;40.294;-3.754;2022-09-16T11:45:06;1.92;;;1.10;;
19782;SDS011;10051;40.294;-3.754;2022-09-16T11:47:55;2.45;;;1.25;;
19782;SDS011;10051;40.294;-3.754;2022-09-16T11:50:47;5.55;;;1.23;;
19782;SDS011;10051;40.294;-3.754;2022-09-16T11:56:30;5.43;;;1.10;;
19782;SDS011;10051;40.294;-3.754;2022-09-16T12:02:01;6.18;;;1.20;;
19782;SDS011;10051;40.294;-3.754;2022-09-16T12:05:25;2.30;;;1.20;;
19782;SDS011;10051;40.294;-3.754;2022-09-16T12:07:38;5.43;;;1.50;;
19782;SDS011;10051;40.294;-3.754;2022-09-16T12:10:24;5.20;;;1.60;;
19782;SDS011;10051;40.294;-3.754;2022-09-16T12:13:02;1.70;;;1.02;;
19782;SDS011;10051;40.294;-3.754;2022-09-16T12:18:30;2.42;;;1.10;;
19782;SDS011;10051;40.294;-3.754;2022-09-16T12:21:09;3.55;;;1.20;;
19782;SDS011;10051;40.294;-3.754;2022-09-16T12:23:59;6.03;;;1.40;;
19782;SDS011;10051;40.294;-3.754;2022-09-16T12:29:52;3.28;;;1.20;;
19782;SDS011;10051;40.294;-3.754;2022-09-16T12:32:32;2.03;;;1.00;;
19782;SDS011;10051;40.294;-3.754;2022-09-16T12:35:03;2.38;;;1.00;;
19782;SDS011;10051;40.294;-3.754;2022-09-16T12:40:20;5.00;;;1.13;;
19782;SDS011;10051;40.294;-3.754;2022-09-16T12:42:56;5.13;;;1.10;;
19782;SDS011;10051;40.294;-3.754;2022-09-16T12:46:01;5.07;;;1.15;;
19782;SDS011;10051;40.294;-3.754;2022-09-16T13:00:31;4.43;;;1.02;;
19782;SDS011;10051;40.294;-3.754;2022-09-16T13:07:55;2.78;;;1.00;;
19782;SDS011;10051;40.294;-3.754;2022-09-16T13:10:35;2.15;;;0.90;;
19782;SDS011;10051;40.294;-3.754;2022-09-16T13:13:04;3.95;;;0.98;;
19782;SDS011;10051;40.294;-3.754;2022-09-16T13:15:33;2.85;;;1.05;;
19782;SDS011;10051;40.294;-3.754;2022-09-16T13:21:04;3.15;;;0.90;;
19782;SDS011;10051;40.294;-3.754;2022-09-16T13:23:39;3.35;;;1.08;;
19782;SDS011;10051;40.294;-3.754;2022-09-16T13:26:08;1.75;;;0.82;;
19782;SDS011;10051;40.294;-3.754;2022-09-16T13:28:38;3.15;;;0.90;;
19782;SDS011;10051;40.294;-3.754;2022-09-16T13:33:39;2.05;;;0.80;;
19782;SDS011;10051;40.294;-3.754;2022-09-16T13:36:12;1.63;;;0.63;;
19782;SDS011;10051;40.294;-3.754;2022-09-16T13:38:51;2.20;;;0.90;;
19782;SDS011;10051;40.294;-3.754;2022-09-16T13:44:02;2.47;;;0.85;;
19782;SDS011;10051;40.294;-3.754;2022-09-16T13:46:47;2.03;;;0.88;;
19782;SDS011;10051;40.294;-3.754;2022-09-16T13:49:21;2.17;;;0.80;;
19782;SDS011;10051;40.294;-3.754;2022-09-16T13:51:50;1.63;;;0.80;;
19782;SDS011;10051;40.294;-3.754;2022-09-16T14:00:05;1.38;;;0.90;;
19782;SDS011;10051;40.294;-3.754;2022-09-16T14:02:49;3.40;;;0.90;;
19782;SDS011;10051;40.294;-3.754;2022-09-16T14:08:20;1.00;;;0.70;;
19782;SDS011;10051;40.294;-3.754;2022-09-16T14:13:45;3.30;;;0.85;;
19782;SDS011;10051;40.294;-3.754;2022-09-16T14:16:15;0.93;;;0.60;;
19782;SDS011;10051;40.294;-3.754;2022-09-16T14:21:38;1.25;;;0.70;;
19782;SDS011;10051;40.294;-3.754;2022-09-16T14:24:17;2.22;;;0.60;;
19782;SDS011;10051;40.294;-3.754;2022-09-16T14:26:51;2.90;;;0.75;;
19782;SDS011;10051;40.294;-3.754;2022-09-16T14:29:17;4.30;;;0.80;;
19782;SDS011;10051;40.294;-3.754;2022-09-16T14:31:43;1.65;;;0.68;;
19782;SDS011;10051;40.294;-3.754;2022-09-16T14:34:10;2.17;;;0.82;;
19782;SDS011;10051;40.294;-3.754;2022-09-16T14:36:40;1.30;;;0.70;;
19782;SDS011;10051;40.294;-3.754;2022-09-16T14:39:12;1.20;;;0.50;;
19782;SDS011;10051;40.294;-3.754;2022-09-16T14:41:45;2.90;;;0.85;;
19782;SDS011;10051;40.294;-3.754;2022-09-16T14:46:46;1.45;;;0.70;;
19782;SDS011;10051;40.294;-3.754;2022-09-16T14:49:13;2.38;;;0.70;;
19782;SDS011;10051;40.294;-3.754;2022-09-16T14:51:47;1.58;;;0.80;;
19782;SDS011;10051;40.294;-3.754;2022-09-16T14:54:17;2.15;;;0.80;;
19782;SDS011;10051;40.294;-3.754;2022-09-16T14:57:04;1.73;;;0.70;;
19782;SDS011;10051;40.294;-3.754;2022-09-16T14:59:36;1.17;;;0.70;;
19782;SDS011;10051;40.294;-3.754;2022-09-16T15:02:14;2.05;;;0.90;;
19782;SDS011;10051;40.294;-3.754;2022-09-16T15:04:45;2.90;;;0.95;;
19782;SDS011;10051;40.294;-3.754;2022-09-16T15:07:16;1.48;;;0.90;;
19782;SDS011;10051;40.294;-3.754;2022-09-16T15:09:47;2.25;;;0.80;;
19782;SDS011;10051;40.294;-3.754;2022-09-16T15:12:28;0.93;;;0.73;;
19782;SDS011;10051;40.294;-3.754;2022-09-16T15:14:57;1.58;;;0.90;;
19782;SDS011;10051;40.294;-3.754;2022-09-16T15:17:26;1.80;;;0.88;;
19782;SDS011;10051;40.294;-3.754;2022-09-16T15:19:56;1.20;;;0.90;;
19782;SDS011;10051;40.294;-3.754;2022-09-16T15:22:24;3.55;;;0.80;;
19782;SDS011;10051;40.294;-3.754;2022-09-16T15:24:51;1.63;;;0.85;;
19782;SDS011;10051;40.294;-3.754;2022-09-16T15:27:27;1.63;;;1.00;;
19782;SDS011;10051;40.294;-3.754;2022-09-16T15:29:55;2.10;;;0.82;;
19782;SDS011;10051;40.294;-3.754;2022-09-16T15:32:24;2.45;;;1.00;;
19782;SDS011;10051;40.294;-3.754;2022-09-16T15:35:02;0.80;;;0.77;;
19782;SDS011;10051;40.294;-3.754;2022-09-16T15:37:34;1.17;;;0.80;;
19782;SDS011;10051;40.294;-3.754;2022-09-16T15:40:07;4.00;;;1.00;;
19782;SDS011;10051;40.294;-3.754;2022-09-16T15:43:10;1.33;;;0.80;;
19782;SDS011;10051;40.294;-3.754;2022-09-16T15:45:42;2.83;;;0.80;;
19782;SDS011;10051;40.294;-3.754;2022-09-16T15:50:37;2.00;;;0.85;;
19782;SDS011;10051;40.294;-3.754;2022-09-16T15:53:09;2.17;;;0.80;;
19782;SDS011;10051;40.294;-3.754;2022-09-16T15:55:56;2.65;;;0.80;;
19782;SDS011;10051;40.294;-3.754;2022-09-16T16:03:22;1.40;;;0.70;;
19782;SDS011;10051;40.294;-3.754;2022-09-16T16:05:49;1.85;;;1.00;;
19782;SDS011;10051;40.294;-3.754;2022-09-16T16:08:35;1.90;;;0.80;;
19782;SDS011;10051;40.294;-3.754;2022-09-16T16:11:04;1.10;;;0.80;;
19782;SDS011;10051;40.294;-3.754;2022-09-16T16:13:35;2.10;;;0.95;;
19782;SDS011;10051;40.294;-3.754;2022-09-16T16:16:00;1.95;;;0.90;;
19782;SDS011;10051;40.294;-3.754;2022-09-16T16:18:28;1.05;;;0.90;;
19782;SDS011;10051;40.294;-3.754;2022-09-16T16:20:59;1.65;;;0.90;;
19782;SDS011;10051;40.294;-3.754;2022-09-16T16:23:29;1.65;;;0.90;;
19782;SDS011;10051;40.294;-3.754;2022-09-16T16:25:54;2.20;;;0.80;;
19782;SDS011;10051;40.294;-3.754;2022-09-16T16:28:20;1.90;;;0.70;;
19782;SDS011;10051;40.294;-3.754;2022-09-16T16:30:45;2.70;;;0.90;;
19782;SDS011;10051;40.294;-3.754;2022-09-16T16:33:11;0.80;;;0.77;;
19782;SDS011;10051;40.294;-3.754;2022-09-16T16:35:37;0.80;;;0.80;;
19782;SDS011;10051;40.294;-3.754;2022-09-16T16:38:02;1.83;;;0.90;;
19782;SDS011;10051;40.294;-3.754;2022-09-16T16:40:28;1.75;;;0.90;;
19782;SDS011;10051;40.294;-3.754;2022-09-16T16:42:53;2.15;;;0.90;;
19782;SDS011;10051;40.294;-3.754;2022-09-16T16:45:19;2.22;;;0.85;;
19782;SDS011;10051;40.294;-3.754;2022-09-16T16:47:45;3.08;;;0.85;;
19782;SDS011;10051;40.294;-3.754;2022-09-16T16:50:10;3.33;;;0.90;;
19782;SDS011;10051;40.294;-3.754;2022-09-16T16:52:36;1.15;;;0.80;;
19782;SDS011;10051;40.294;-3.754;2022-09-16T16:55:02;1.92;;;0.90;;
19782;SDS011;10051;40.294;-3.754;2022-09-16T16:57:28;1.45;;;0.90;;
19782;SDS011;10051;40.294;-3.754;2022-09-16T16:59:53;1.05;;;0.82;;
19782;SDS011;10051;40.294;-3.754;2022-09-16T17:02:18;2.42;;;0.88;;
19782;SDS011;10051;40.294;-3.754;2022-09-16T17:04:44;1.85;;;0.80;;
19782;SDS011;10051;40.294;-3.754;2022-09-16T17:07:09;2.53;;;0.90;;
19782;SDS011;10051;40.294;-3.754;2022-09-16T19:17:40;4.42;;;1.20;;
19782;SDS011;10051;40.294;-3.754;2022-09-16T19:20:05;3.45;;;1.30;;
19782;SDS011;10051;40.294;-3.754;2022-09-16T19:22:31;2.15;;;1.30;;
19782;SDS011;10051;40.294;-3.754;2022-09-16T19:24:57;5.05;;;1.60;;
19782;SDS011;10051;40.294;-3.754;2022-09-16T19:27:22;3.50;;;1.60;;
19782;SDS011;10051;40.294;-3.754;2022-09-16T19:29:48;4.25;;;1.70;;
19782;SDS011;10051;40.294;-3.754;2022-09-16T19:32:13;3.50;;;2.10;;
19782;SDS011;10051;40.294;-3.754;2022-09-16T19:34:39;5.63;;;1.63;;
19782;SDS011;10051;40.294;-3.754;2022-09-16T19:37:04;4.85;;;2.15;;
19782;SDS011;10051;40.294;-3.754;2022-09-16T19:39:30;4.82;;;1.90;;
19782;SDS011;10051;40.294;-3.754;2022-09-16T19:41:55;5.97;;;1.90;;
19782;SDS011;10051;40.294;-3.754;2022-09-16T19:44:21;4.45;;;1.80;;
19782;SDS011;10051;40.294;-3.754;2022-09-16T19:46:47;3.88;;;1.85;;
19782;SDS011;10051;40.294;-3.754;2022-09-16T19:49:16;5.88;;;1.83;;
19782;SDS011;10051;40.294;-3.754;2022-09-16T19:51:44;4.40;;;1.90;;
19782;SDS011;10051;40.294;-3.754;2022-09-16T19:54:10;2.97;;;1.80;;
19782;SDS011;10051;40.294;-3.754;2022-09-16T19:56:36;7.15;;;2.72;;
19782;SDS011;10051;40.294;-3.754;2022-09-16T19:59:04;9.90;;;4.55;;
19782;SDS011;10051;40.294;-3.754;2022-09-16T20:01:31;4.55;;;3.10;;
19782;SDS011;10051;40.294;-3.754;2022-09-16T20:03:57;4.30;;;2.70;;
19782;SDS011;10051;40.294;-3.754;2022-09-16T20:06:26;5.38;;;2.08;;
19782;SDS011;10051;40.294;-3.754;2022-09-16T20:08:56;5.95;;;2.20;;
19782;SDS011;10051;40.294;-3.754;2022-09-16T20:11:25;4.07;;;1.90;;
19782;SDS011;10051;40.294;-3.754;2022-09-16T20:13:53;5.95;;;1.90;;
19782;SDS011;10051;40.294;-3.754;2022-09-16T20:16:21;3.88;;;1.90;;
19782;SDS011;10051;40.294;-3.754;2022-09-16T20:18:48;8.07;;;1.95;;
19782;SDS011;10051;40.294;-3.754;2022-09-16T20:21:15;4.27;;;2.10;;
19782;SDS011;10051;40.294;-3.754;2022-09-16T20:23:43;5.82;;;2.15;;
19782;SDS011;10051;40.294;-3.754;2022-09-16T20:26:12;10.38;;;2.50;;
19782;SDS011;10051;40.294;-3.754;2022-09-16T20:28:43;4.90;;;2.80;;
19782;SDS011;10051;40.294;-3.754;2022-09-16T20:31:11;6.93;;;2.95;;
19782;SDS011;10051;40.294;-3.754;2022-09-16T20:33:38;5.03;;;2.75;;
19782;SDS011;10051;40.294;-3.754;2022-09-16T20:36:06;5.82;;;2.75;;
19782;SDS011;10051;40.294;-3.754;2022-09-16T20:38:36;5.10;;;2.60;;
19782;SDS011;10051;40.294;-3.754;2022-09-16T20:41:10;6.78;;;2.78;;
19782;SDS011;10051;40.294;-3.754;2022-09-16T20:43:43;5.25;;;2.67;;
19782;SDS011;10051;40.294;-3.754;2022-09-16T20:46:13;4.70;;;2.55;;
19782;SDS011;10051;40.294;-3.754;2022-09-16T20:48:39;7.75;;;2.90;;
19782;SDS011;10051;40.294;-3.754;2022-09-16T20:51:06;5.40;;;2.60;;
19782;SDS011;10051;40.294;-3.754;2022-09-16T20:53:33;7.50;;;2.70;;
19782;SDS011;10051;40.294;-3.754;2022-09-16T20:56:00;4.38;;;2.30;;
19782;SDS011;10051;40.294;-3.754;2022-09-16T20:58:31;6.90;;;2.70;;
19782;SDS011;10051;40.294;-3.754;2022-09-16T21:01:03;6.25;;;2.60;;
19782;SDS011;10051;40.294;-3.754;2022-09-16T21:03:34;7.40;;;2.90;;
19782;SDS011;10051;40.294;-3.754;2022-09-16T21:06:04;6.20;;;2.85;;
19782;SDS011;10051;40.294;-3.754;2022-09-16T21:08:31;8.20;;;3.80;;
19782;SDS011;10051;40.294;-3.754;2022-09-16T21:11:03;9.48;;;4.13;;
19782;SDS011;10051;40.294;-3.754;2022-09-16T21:13:29;8.15;;;4.03;;
19782;SDS011;10051;40.294;-3.754;2022-09-16T21:15:58;9.52;;;3.85;;
19782;SDS011;10051;40.294;-3.754;2022-09-16T21:18:24;8.52;;;3.60;;
19782;SDS011;10051;40.294;-3.754;2022-09-16T21:21:01;5.85;;;3.08;;
19782;SDS011;10051;40.294;-3.754;2022-09-16T21:23:27;6.15;;;3.28;;
19782;SDS011;10051;40.294;-3.754;2022-09-16T21:25:53;12.43;;;3.70;;
19782;SDS011;10051;40.294;-3.754;2022-09-16T21:28:19;8.18;;;3.90;;
19782;SDS011;10051;40.294;-3.754;2022-09-16T21:30:45;11.35;;;3.63;;
19782;SDS011;10051;40.294;-3.754;2022-09-16T21:33:12;5.95;;;3.10;;
19782;SDS011;10051;40.294;-3.754;2022-09-16T21:35:38;6.40;;;2.80;;
19782;SDS011;10051;40.294;-3.754;2022-09-16T21:38:05;5.47;;;2.80;;
19782;SDS011;10051;40.294;-3.754;2022-09-16T21:40:32;6.18;;;3.15;;
19782;SDS011;10051;40.294;-3.754;2022-09-16T21:42:58;5.38;;;3.22;;